sensor_id;sensor_type;location;lat;lon;timestamp;temperature;humidity
1175;DHT22;576;48.418;10.074;2024-03-08T00:00:16;22.50;58.50
1175;DHT22;576;48.418;10.074;2024-03-08T00:02:47;22.50;58.50
1175;DHT22;576;48.418;10.074;2024-03-08T00:05:18;22.50;58.40
1175;DHT22;576;48.418;10.074;2024-03-08T00:07:48;22.50;58.50
1175;DHT22;576;48.418;10.074;2024-03-08T00:10:16;22.40;58.50
1175;DHT22;576;48.418;10.074;2024-03-08T00:12:45;22.40;58.40
1175;DHT22;576;48.418;10.074;2024-03-08T00:15:15;22.40;58.40
1175;DHT22;576;48.418;10.074;2024-03-08T00:17:46;22.40;58.40
1175;DHT22;576;48.418;10.074;2024-03-08T00:20:15;22.40;58.40
1175;DHT22;576;48.418;10.074;2024-03-08T00:22:47;22.40;58.40
1175;DHT22;576;48.418;10.074;2024-03-08T00:25:15;22.40;58.40
1175;DHT22;576;48.418;10.074;2024-03-08T00:27:44;22.30;58.40
1175;DHT22;576;48.418;10.074;2024-03-08T00:30:16;22.30;58.40
1175;DHT22;576;48.418;10.074;2024-03-08T00:32:45;22.30;58.40
1175;DHT22;576;48.418;10.074;2024-03-08T00:35:13;22.30;58.40
1175;DHT22;576;48.418;10.074;2024-03-08T00:37:41;22.30;58.40
1175;DHT22;576;48.418;10.074;2024-03-08T00:40:12;22.30;58.40
1175;DHT22;576;48.418;10.074;2024-03-08T00:42:40;22.20;58.40
1175;DHT22;576;48.418;10.074;2024-03-08T00:45:11;22.20;58.40
1175;DHT22;576;48.418;10.074;2024-03-08T00:47:39;22.20;58.40
1175;DHT22;576;48.418;10.074;2024-03-08T00:50:10;22.20;58.40
1175;DHT22;576;48.418;10.074;2024-03-08T00:52:38;22.20;58.40
1175;DHT22;576;48.418;10.074;2024-03-08T00:55:07;22.20;58.40
1175;DHT22;576;48.418;10.074;2024-03-08T00:57:39;22.20;58.40
1175;DHT22;576;48.418;10.074;2024-03-08T01:00:08;22.20;58.40
1175;DHT22;576;48.418;10.074;2024-03-08T01:02:39;22.10;58.40
1175;DHT22;576;48.418;10.074;2024-03-08T01:05:08;22.10;58.30
1175;DHT22;576;48.418;10.074;2024-03-08T01:07:36;22.10;58.30
1175;DHT22;576;48.418;10.074;2024-03-08T01:10:05;22.10;58.30
1175;DHT22;576;48.418;10.074;2024-03-08T01:12:36;22.10;58.30
1175;DHT22;576;48.418;10.074;2024-03-08T01:15:06;22.10;58.30
1175;DHT22;576;48.418;10.074;2024-03-08T01:17:35;22.10;58.30
1175;DHT22;576;48.418;10.074;2024-03-08T01:20:05;22.10;58.20
1175;DHT22;576;48.418;10.074;2024-03-08T01:22:34;22.10;58.30
1175;DHT22;576;48.418;10.074;2024-03-08T01:25:02;22.10;58.30
1175;DHT22;576;48.418;10.074;2024-03-08T01:27:32;22.00;58.30
1175;DHT22;576;48.418;10.074;2024-03-08T01:30:06;22.00;58.20
1175;DHT22;576;48.418;10.074;2024-03-08T01:32:36;22.00;58.20
1175;DHT22;576;48.418;10.074;2024-03-08T01:35:06;22.00;58.20
1175;DHT22;576;48.418;10.074;2024-03-08T01:37:36;22.00;58.20
1175;DHT22;576;48.418;10.074;2024-03-08T01:40:05;22.00;58.20
1175;DHT22;576;48.418;10.074;2024-03-08T01:42:35;22.00;58.20
1175;DHT22;576;48.418;10.074;2024-03-08T01:45:07;22.00;58.20
1175;DHT22;576;48.418;10.074;2024-03-08T01:47:36;22.00;58.20
1175;DHT22;576;48.418;10.074;2024-03-08T01:50:06;22.00;58.20
1175;DHT22;576;48.418;10.074;2024-03-08T01:52:35;22.00;58.20
1175;DHT22;576;48.418;10.074;2024-03-08T01:55:05;22.00;58.20
1175;DHT22;576;48.418;10.074;2024-03-08T01:57:35;21.90;58.20
1175;DHT22;576;48.418;10.074;2024-03-08T02:00:07;21.90;58.20
1175;DHT22;576;48.418;10.074;2024-03-08T02:02:38;21.90;58.20
1175;DHT22;576;48.418;10.074;2024-03-08T02:05:07;21.90;58.20
1175;DHT22;576;48.418;10.074;2024-03-08T02:07:36;21.90;58.20
1175;DHT22;576;48.418;10.074;2024-03-08T02:10:05;21.90;58.20
1175;DHT22;576;48.418;10.074;2024-03-08T02:12:33;21.90;58.10
1175;DHT22;576;48.418;10.074;2024-03-08T02:15:01;21.80;58.20
1175;DHT22;576;48.418;10.074;2024-03-08T02:17:31;21.90;58.20
1175;DHT22;576;48.418;10.074;2024-03-08T02:20:00;21.80;58.10
1175;DHT22;576;48.418;10.074;2024-03-08T02:22:32;21.80;58.10
1175;DHT22;576;48.418;10.074;2024-03-08T02:25:00;21.80;58.10
1175;DHT22;576;48.418;10.074;2024-03-08T02:27:31;21.80;58.10
1175;DHT22;576;48.418;10.074;2024-03-08T02:29:59;21.80;58.10
1175;DHT22;576;48.418;10.074;2024-03-08T02:32:28;21.80;58.10
1175;DHT22;576;48.418;10.074;2024-03-08T02:34:57;21.80;58.10
1175;DHT22;576;48.418;10.074;2024-03-08T02:37:27;21.80;58.10
1175;DHT22;576;48.418;10.074;2024-03-08T02:39:57;21.80;58.10
1175;DHT22;576;48.418;10.074;2024-03-08T02:42:25;21.80;58.10
1175;DHT22;576;48.418;10.074;2024-03-08T02:44:54;21.80;58.10
1175;DHT22;576;48.418;10.074;2024-03-08T02:47:22;21.80;58.10
1175;DHT22;576;48.418;10.074;2024-03-08T02:49:53;21.80;58.00
1175;DHT22;576;48.418;10.074;2024-03-08T02:52:22;21.70;58.10
1175;DHT22;576;48.418;10.074;2024-03-08T02:54:52;21.70;58.10
1175;DHT22;576;48.418;10.074;2024-03-08T02:57:22;21.70;58.10
1175;DHT22;576;48.418;10.074;2024-03-08T02:59:50;21.70;58.10
1175;DHT22;576;48.418;10.074;2024-03-08T03:02:18;21.70;58.10
1175;DHT22;576;48.418;10.074;2024-03-08T03:04:46;21.70;58.10
1175;DHT22;576;48.418;10.074;2024-03-08T03:07:15;21.70;58.10
1175;DHT22;576;48.418;10.074;2024-03-08T03:09:43;21.70;58.10
1175;DHT22;576;48.418;10.074;2024-03-08T03:12:12;21.70;58.10
1175;DHT22;576;48.418;10.074;2024-03-08T03:14:42;21.70;58.10
1175;DHT22;576;48.418;10.074;2024-03-08T03:17:10;21.70;58.20
1175;DHT22;576;48.418;10.074;2024-03-08T03:19:41;21.70;58.10
1175;DHT22;576;48.418;10.074;2024-03-08T03:22:09;21.70;58.20
1175;DHT22;576;48.418;10.074;2024-03-08T03:24:38;21.60;58.20
1175;DHT22;576;48.418;10.074;2024-03-08T03:27:07;21.70;58.20
1175;DHT22;576;48.418;10.074;2024-03-08T03:29:38;21.60;58.20
1175;DHT22;576;48.418;10.074;2024-03-08T03:32:10;21.60;58.20
1175;DHT22;576;48.418;10.074;2024-03-08T03:34:38;21.60;58.20
1175;DHT22;576;48.418;10.074;2024-03-08T03:37:07;21.60;58.10
1175;DHT22;576;48.418;10.074;2024-03-08T03:39:35;21.60;58.10
1175;DHT22;576;48.418;10.074;2024-03-08T03:42:15;21.60;58.10
1175;DHT22;576;48.418;10.074;2024-03-08T03:44:44;21.60;58.20
1175;DHT22;576;48.418;10.074;2024-03-08T03:47:14;21.60;58.20
1175;DHT22;576;48.418;10.074;2024-03-08T03:49:43;21.60;58.20
1175;DHT22;576;48.418;10.074;2024-03-08T03:52:12;21.60;58.10
1175;DHT22;576;48.418;10.074;2024-03-08T03:54:42;21.60;58.10
1175;DHT22;576;48.418;10.074;2024-03-08T03:57:10;21.50;58.20
1175;DHT22;576;48.418;10.074;2024-03-08T03:59:40;21.50;58.20
1175;DHT22;576;48.418;10.074;2024-03-08T04:02:09;21.50;58.20
1175;DHT22;576;48.418;10.074;2024-03-08T04:04:38;21.50;58.20
1175;DHT22;576;48.418;10.074;2024-03-08T04:07:07;21.50;58.10
1175;DHT22;576;48.418;10.074;2024-03-08T04:09:36;21.50;58.10
1175;DHT22;576;48.418;10.074;2024-03-08T04:12:05;21.50;58.20
1175;DHT22;576;48.418;10.074;2024-03-08T04:14:34;21.50;58.20
1175;DHT22;576;48.418;10.074;2024-03-08T04:17:02;21.50;58.10
1175;DHT22;576;48.418;10.074;2024-03-08T04:19:30;21.50;58.20
1175;DHT22;576;48.418;10.074;2024-03-08T04:22:00;21.40;58.10
1175;DHT22;576;48.418;10.074;2024-03-08T04:24:29;21.40;58.10
1175;DHT22;576;48.418;10.074;2024-03-08T04:26:57;21.40;58.20
1175;DHT22;576;48.418;10.074;2024-03-08T04:29:26;21.40;58.10
1175;DHT22;576;48.418;10.074;2024-03-08T04:31:54;21.40;58.10
1175;DHT22;576;48.418;10.074;2024-03-08T04:34:23;21.40;58.10
1175;DHT22;576;48.418;10.074;2024-03-08T04:36:51;21.40;58.10
1175;DHT22;576;48.418;10.074;2024-03-08T04:39:21;21.40;58.10
1175;DHT22;576;48.418;10.074;2024-03-08T04:41:49;21.40;58.10
1175;DHT22;576;48.418;10.074;2024-03-08T04:44:18;21.40;58.10
1175;DHT22;576;48.418;10.074;2024-03-08T04:46:46;21.40;58.10
1175;DHT22;576;48.418;10.074;2024-03-08T04:49:15;21.40;58.00
1175;DHT22;576;48.418;10.074;2024-03-08T04:51:43;21.40;58.10
1175;DHT22;576;48.418;10.074;2024-03-08T04:54:13;21.40;58.00
1175;DHT22;576;48.418;10.074;2024-03-08T04:56:42;21.40;58.10
1175;DHT22;576;48.418;10.074;2024-03-08T04:59:10;21.40;58.10
1175;DHT22;576;48.418;10.074;2024-03-08T05:01:39;21.40;58.10
1175;DHT22;576;48.418;10.074;2024-03-08T05:04:09;21.40;58.00
1175;DHT22;576;48.418;10.074;2024-03-08T05:06:37;21.50;58.00
1175;DHT22;576;48.418;10.074;2024-03-08T05:09:05;21.50;58.00
1175;DHT22;576;48.418;10.074;2024-03-08T05:11:42;21.50;57.90
1175;DHT22;576;48.418;10.074;2024-03-08T05:14:11;21.60;57.90
1175;DHT22;576;48.418;10.074;2024-03-08T05:16:43;21.60;57.80
1175;DHT22;576;48.418;10.074;2024-03-08T05:19:16;21.70;57.60
1175;DHT22;576;48.418;10.074;2024-03-08T05:21:45;21.70;57.60
1175;DHT22;576;48.418;10.074;2024-03-08T05:24:13;21.80;57.50
1175;DHT22;576;48.418;10.074;2024-03-08T05:26:44;21.80;57.40
1175;DHT22;576;48.418;10.074;2024-03-08T05:29:12;21.90;57.30
1175;DHT22;576;48.418;10.074;2024-03-08T05:31:46;22.00;57.30
1175;DHT22;576;48.418;10.074;2024-03-08T05:34:15;22.00;57.20
1175;DHT22;576;48.418;10.074;2024-03-08T05:36:43;22.10;57.10
1175;DHT22;576;48.418;10.074;2024-03-08T05:39:13;22.10;57.10
1175;DHT22;576;48.418;10.074;2024-03-08T05:41:43;22.20;57.00
1175;DHT22;576;48.418;10.074;2024-03-08T05:44:13;22.20;57.00
1175;DHT22;576;48.418;10.074;2024-03-08T05:46:41;22.30;56.90
1175;DHT22;576;48.418;10.074;2024-03-08T05:49:09;22.40;56.90
1175;DHT22;576;48.418;10.074;2024-03-08T05:51:39;22.40;56.80
1175;DHT22;576;48.418;10.074;2024-03-08T05:54:09;22.50;56.70
1175;DHT22;576;48.418;10.074;2024-03-08T05:56:40;22.50;56.60
1175;DHT22;576;48.418;10.074;2024-03-08T05:59:12;22.50;56.50
1175;DHT22;576;48.418;10.074;2024-03-08T06:01:40;22.60;56.50
1175;DHT22;576;48.418;10.074;2024-03-08T06:04:09;22.50;56.50
1175;DHT22;576;48.418;10.074;2024-03-08T06:06:39;22.60;56.50
1175;DHT22;576;48.418;10.074;2024-03-08T06:09:08;22.50;56.50
1175;DHT22;576;48.418;10.074;2024-03-08T06:11:39;22.50;56.50
1175;DHT22;576;48.418;10.074;2024-03-08T06:14:09;22.50;56.60
1175;DHT22;576;48.418;10.074;2024-03-08T06:16:39;22.40;56.70
1175;DHT22;576;48.418;10.074;2024-03-08T06:19:07;22.40;56.80
1175;DHT22;576;48.418;10.074;2024-03-08T06:21:35;22.40;56.90
1175;DHT22;576;48.418;10.074;2024-03-08T06:24:04;22.40;57.10
1175;DHT22;576;48.418;10.074;2024-03-08T06:26:33;22.30;57.20
1175;DHT22;576;48.418;10.074;2024-03-08T06:29:04;22.30;57.30
1175;DHT22;576;48.418;10.074;2024-03-08T06:31:33;22.20;57.40
1175;DHT22;576;48.418;10.074;2024-03-08T06:34:08;22.20;57.50
1175;DHT22;576;48.418;10.074;2024-03-08T06:36:37;22.20;57.60
1175;DHT22;576;48.418;10.074;2024-03-08T06:39:05;22.10;57.70
1175;DHT22;576;48.418;10.074;2024-03-08T06:41:37;22.10;57.80
1175;DHT22;576;48.418;10.074;2024-03-08T06:44:05;22.10;57.80
1175;DHT22;576;48.418;10.074;2024-03-08T06:46:35;22.10;57.90
1175;DHT22;576;48.418;10.074;2024-03-08T06:49:03;22.10;58.00
1175;DHT22;576;48.418;10.074;2024-03-08T06:51:33;22.10;58.00
1175;DHT22;576;48.418;10.074;2024-03-08T06:54:01;22.10;58.00
1175;DHT22;576;48.418;10.074;2024-03-08T06:56:35;22.20;58.00
1175;DHT22;576;48.418;10.074;2024-03-08T06:59:04;22.20;58.00
1175;DHT22;576;48.418;10.074;2024-03-08T07:01:33;22.20;57.90
1175;DHT22;576;48.418;10.074;2024-03-08T07:04:03;22.20;57.80
1175;DHT22;576;48.418;10.074;2024-03-08T07:06:34;22.30;57.70
1175;DHT22;576;48.418;10.074;2024-03-08T07:09:03;22.30;57.50
1175;DHT22;576;48.418;10.074;2024-03-08T07:11:31;22.30;57.30
1175;DHT22;576;48.418;10.074;2024-03-08T07:14:01;22.30;57.20
1175;DHT22;576;48.418;10.074;2024-03-08T07:16:32;22.30;57.20
1175;DHT22;576;48.418;10.074;2024-03-08T07:19:02;22.30;57.00
1175;DHT22;576;48.418;10.074;2024-03-08T07:21:32;22.30;57.00
1175;DHT22;576;48.418;10.074;2024-03-08T07:24:01;22.40;57.00
1175;DHT22;576;48.418;10.074;2024-03-08T07:26:51;22.40;57.00
1175;DHT22;576;48.418;10.074;2024-03-08T07:29:19;22.40;57.00
1175;DHT22;576;48.418;10.074;2024-03-08T07:31:48;22.40;57.00
1175;DHT22;576;48.418;10.074;2024-03-08T07:34:23;22.40;57.00
1175;DHT22;576;48.418;10.074;2024-03-08T07:36:52;22.40;57.10
1175;DHT22;576;48.418;10.074;2024-03-08T07:39:22;22.40;57.10
1175;DHT22;576;48.418;10.074;2024-03-08T07:41:50;22.40;57.10
1175;DHT22;576;48.418;10.074;2024-03-08T07:44:19;22.30;57.10
1175;DHT22;576;48.418;10.074;2024-03-08T07:46:47;22.30;57.20
1175;DHT22;576;48.418;10.074;2024-03-08T07:49:16;22.30;57.20
1175;DHT22;576;48.418;10.074;2024-03-08T07:51:45;22.30;57.20
1175;DHT22;576;48.418;10.074;2024-03-08T07:54:13;22.30;57.20
1175;DHT22;576;48.418;10.074;2024-03-08T07:56:43;22.30;57.20
1175;DHT22;576;48.418;10.074;2024-03-08T07:59:11;22.20;57.20
1175;DHT22;576;48.418;10.074;2024-03-08T08:01:39;22.20;57.20
1175;DHT22;576;48.418;10.074;2024-03-08T08:04:08;22.20;57.30
1175;DHT22;576;48.418;10.074;2024-03-08T08:06:39;22.20;57.30
1175;DHT22;576;48.418;10.074;2024-03-08T08:09:08;22.20;57.30
1175;DHT22;576;48.418;10.074;2024-03-08T08:11:42;22.20;57.30
1175;DHT22;576;48.418;10.074;2024-03-08T08:14:11;22.20;57.40
1175;DHT22;576;48.418;10.074;2024-03-08T08:16:39;22.20;57.40
1175;DHT22;576;48.418;10.074;2024-03-08T08:19:09;22.20;57.40
1175;DHT22;576;48.418;10.074;2024-03-08T08:21:41;22.20;57.40
1175;DHT22;576;48.418;10.074;2024-03-08T08:24:09;22.20;57.40
1175;DHT22;576;48.418;10.074;2024-03-08T08:26:38;22.20;57.50
1175;DHT22;576;48.418;10.074;2024-03-08T08:29:08;22.20;57.60
1175;DHT22;576;48.418;10.074;2024-03-08T08:31:36;22.20;57.60
1175;DHT22;576;48.418;10.074;2024-03-08T08:34:05;22.30;57.70
1175;DHT22;576;48.418;10.074;2024-03-08T08:36:33;22.30;57.90
1175;DHT22;576;48.418;10.074;2024-03-08T08:39:02;22.30;58.00
1175;DHT22;576;48.418;10.074;2024-03-08T08:41:30;22.30;57.90
1175;DHT22;576;48.418;10.074;2024-03-08T08:43:59;22.30;57.80
1175;DHT22;576;48.418;10.074;2024-03-08T08:46:43;22.30;57.70
1175;DHT22;576;48.418;10.074;2024-03-08T08:49:11;22.30;57.60
1175;DHT22;576;48.418;10.074;2024-03-08T08:51:41;22.30;57.50
1175;DHT22;576;48.418;10.074;2024-03-08T08:54:10;22.30;57.40
1175;DHT22;576;48.418;10.074;2024-03-08T08:56:41;22.20;57.30
1175;DHT22;576;48.418;10.074;2024-03-08T08:59:10;22.20;57.30
1175;DHT22;576;48.418;10.074;2024-03-08T09:01:40;22.20;57.20
1175;DHT22;576;48.418;10.074;2024-03-08T09:04:10;22.20;57.20
1175;DHT22;576;48.418;10.074;2024-03-08T09:06:39;22.20;57.20
1175;DHT22;576;48.418;10.074;2024-03-08T09:09:09;22.10;57.10
1175;DHT22;576;48.418;10.074;2024-03-08T09:11:38;22.10;57.10
1175;DHT22;576;48.418;10.074;2024-03-08T09:14:08;22.10;57.10
1175;DHT22;576;48.418;10.074;2024-03-08T09:16:39;22.10;57.00
1175;DHT22;576;48.418;10.074;2024-03-08T09:19:07;22.10;57.00
1175;DHT22;576;48.418;10.074;2024-03-08T09:21:39;22.10;57.00
1175;DHT22;576;48.418;10.074;2024-03-08T09:24:08;22.10;56.90
1175;DHT22;576;48.418;10.074;2024-03-08T09:26:36;22.10;57.10
1175;DHT22;576;48.418;10.074;2024-03-08T09:29:04;22.10;57.20
1175;DHT22;576;48.418;10.074;2024-03-08T09:31:33;22.10;57.20
1175;DHT22;576;48.418;10.074;2024-03-08T09:34:02;22.10;57.10
1175;DHT22;576;48.418;10.074;2024-03-08T09:36:30;22.10;57.10
1175;DHT22;576;48.418;10.074;2024-03-08T09:39:01;22.20;57.00
1175;DHT22;576;48.418;10.074;2024-03-08T09:41:29;22.20;56.90
1175;DHT22;576;48.418;10.074;2024-03-08T09:43:58;22.20;56.80
1175;DHT22;576;48.418;10.074;2024-03-08T09:46:27;22.20;56.80
1175;DHT22;576;48.418;10.074;2024-03-08T09:48:56;22.30;56.70
1175;DHT22;576;48.418;10.074;2024-03-08T09:51:28;22.30;56.70
1175;DHT22;576;48.418;10.074;2024-03-08T09:53:57;22.30;56.60
1175;DHT22;576;48.418;10.074;2024-03-08T09:56:32;22.40;56.50
1175;DHT22;576;48.418;10.074;2024-03-08T09:59:01;22.40;56.40
1175;DHT22;576;48.418;10.074;2024-03-08T10:02:13;22.40;56.30
1175;DHT22;576;48.418;10.074;2024-03-08T10:04:43;22.40;56.20
1175;DHT22;576;48.418;10.074;2024-03-08T10:07:14;22.50;56.10
1175;DHT22;576;48.418;10.074;2024-03-08T10:09:43;22.50;56.00
1175;DHT22;576;48.418;10.074;2024-03-08T10:12:18;22.50;56.00
1175;DHT22;576;48.418;10.074;2024-03-08T10:14:47;22.50;55.80
1175;DHT22;576;48.418;10.074;2024-03-08T10:17:15;22.50;55.70
1175;DHT22;576;48.418;10.074;2024-03-08T10:19:53;22.50;55.70
1175;DHT22;576;48.418;10.074;2024-03-08T10:22:21;22.50;55.60
1175;DHT22;576;48.418;10.074;2024-03-08T10:24:50;22.50;55.60
1175;DHT22;576;48.418;10.074;2024-03-08T10:27:19;22.50;55.60
1175;DHT22;576;48.418;10.074;2024-03-08T10:29:48;22.50;55.60
1175;DHT22;576;48.418;10.074;2024-03-08T10:32:19;22.50;55.60
1175;DHT22;576;48.418;10.074;2024-03-08T10:34:47;22.50;55.60
1175;DHT22;576;48.418;10.074;2024-03-08T10:37:21;22.50;55.60
1175;DHT22;576;48.418;10.074;2024-03-08T10:40:00;22.50;55.60
1175;DHT22;576;48.418;10.074;2024-03-08T10:42:41;22.50;55.50
1175;DHT22;576;48.418;10.074;2024-03-08T10:45:31;22.50;55.50
1175;DHT22;576;48.418;10.074;2024-03-08T10:48:16;22.50;55.50
1175;DHT22;576;48.418;10.074;2024-03-08T10:50:49;22.50;55.50
1175;DHT22;576;48.418;10.074;2024-03-08T10:53:20;22.50;55.50
1175;DHT22;576;48.418;10.074;2024-03-08T10:55:50;22.50;55.40
1175;DHT22;576;48.418;10.074;2024-03-08T10:58:22;22.50;55.30
1175;DHT22;576;48.418;10.074;2024-03-08T11:00:54;22.60;55.20
1175;DHT22;576;48.418;10.074;2024-03-08T11:03:54;22.60;55.10
1175;DHT22;576;48.418;10.074;2024-03-08T11:06:30;22.60;55.10
1175;DHT22;576;48.418;10.074;2024-03-08T11:08:59;22.60;55.00
1175;DHT22;576;48.418;10.074;2024-03-08T11:11:28;22.70;55.00
1175;DHT22;576;48.418;10.074;2024-03-08T11:14:03;22.70;55.00
1175;DHT22;576;48.418;10.074;2024-03-08T11:16:39;22.70;54.80
1175;DHT22;576;48.418;10.074;2024-03-08T11:19:25;22.70;54.70
1175;DHT22;576;48.418;10.074;2024-03-08T11:22:00;22.70;54.50
1175;DHT22;576;48.418;10.074;2024-03-08T11:24:28;22.70;54.60
1175;DHT22;576;48.418;10.074;2024-03-08T11:27:05;22.70;54.60
1175;DHT22;576;48.418;10.074;2024-03-08T11:29:36;22.80;54.60
1175;DHT22;576;48.418;10.074;2024-03-08T11:32:10;22.80;54.50
1175;DHT22;576;48.418;10.074;2024-03-08T11:34:40;22.80;54.50
1175;DHT22;576;48.418;10.074;2024-03-08T11:37:12;22.90;54.50
1175;DHT22;576;48.418;10.074;2024-03-08T11:39:46;22.90;54.40
1175;DHT22;576;48.418;10.074;2024-03-08T11:42:15;22.90;54.40
1175;DHT22;576;48.418;10.074;2024-03-08T11:44:46;22.90;54.40
1175;DHT22;576;48.418;10.074;2024-03-08T11:47:15;23.00;54.30
1175;DHT22;576;48.418;10.074;2024-03-08T11:49:44;23.10;54.30
1175;DHT22;576;48.418;10.074;2024-03-08T11:52:16;23.40;54.20
1175;DHT22;576;48.418;10.074;2024-03-08T11:54:51;23.70;53.30
1175;DHT22;576;48.418;10.074;2024-03-08T11:57:22;23.90;53.10
1175;DHT22;576;48.418;10.074;2024-03-08T11:59:53;24.10;52.30
1175;DHT22;576;48.418;10.074;2024-03-08T12:02:24;24.30;52.10
1175;DHT22;576;48.418;10.074;2024-03-08T12:04:56;24.50;51.50
1175;DHT22;576;48.418;10.074;2024-03-08T12:07:26;24.60;51.20
1175;DHT22;576;48.418;10.074;2024-03-08T12:10:15;24.70;51.40
1175;DHT22;576;48.418;10.074;2024-03-08T12:12:45;24.60;51.60
1175;DHT22;576;48.418;10.074;2024-03-08T12:15:16;24.50;51.70
1175;DHT22;576;48.418;10.074;2024-03-08T12:17:47;24.40;51.90
1175;DHT22;576;48.418;10.074;2024-03-08T12:20:18;24.30;52.00
1175;DHT22;576;48.418;10.074;2024-03-08T12:22:49;24.30;52.10
1175;DHT22;576;48.418;10.074;2024-03-08T12:25:20;24.40;51.50
1175;DHT22;576;48.418;10.074;2024-03-08T12:27:48;24.60;51.30
1175;DHT22;576;48.418;10.074;2024-03-08T12:30:22;24.70;51.20
1175;DHT22;576;48.418;10.074;2024-03-08T12:32:55;24.70;51.00
1175;DHT22;576;48.418;10.074;2024-03-08T12:35:26;24.70;51.10
1175;DHT22;576;48.418;10.074;2024-03-08T12:37:56;24.60;51.30
1175;DHT22;576;48.418;10.074;2024-03-08T12:40:28;24.60;50.90
1175;DHT22;576;48.418;10.074;2024-03-08T12:42:57;24.70;50.80
1175;DHT22;576;48.418;10.074;2024-03-08T12:45:28;24.90;50.50
1175;DHT22;576;48.418;10.074;2024-03-08T12:47:56;25.10;50.40
1175;DHT22;576;48.418;10.074;2024-03-08T12:50:26;25.30;50.10
1175;DHT22;576;48.418;10.074;2024-03-08T12:52:54;25.50;49.90
1175;DHT22;576;48.418;10.074;2024-03-08T12:55:22;25.70;49.70
1175;DHT22;576;48.418;10.074;2024-03-08T12:57:51;25.80;49.70
1175;DHT22;576;48.418;10.074;2024-03-08T13:00:20;25.90;49.50
1175;DHT22;576;48.418;10.074;2024-03-08T13:02:52;26.00;49.40
1175;DHT22;576;48.418;10.074;2024-03-08T13:05:20;26.00;49.40
1175;DHT22;576;48.418;10.074;2024-03-08T13:07:48;26.10;49.50
1175;DHT22;576;48.418;10.074;2024-03-08T13:10:17;26.30;49.50
1175;DHT22;576;48.418;10.074;2024-03-08T13:12:47;26.30;49.50
1175;DHT22;576;48.418;10.074;2024-03-08T13:15:20;26.40;49.60
1175;DHT22;576;48.418;10.074;2024-03-08T13:17:48;26.40;49.70
1175;DHT22;576;48.418;10.074;2024-03-08T13:20:19;26.40;49.70
1175;DHT22;576;48.418;10.074;2024-03-08T13:22:59;26.40;49.80
1175;DHT22;576;48.418;10.074;2024-03-08T13:25:28;26.50;49.90
1175;DHT22;576;48.418;10.074;2024-03-08T13:27:57;26.40;50.00
1175;DHT22;576;48.418;10.074;2024-03-08T13:30:27;26.40;50.20
1175;DHT22;576;48.418;10.074;2024-03-08T13:32:57;26.40;50.40
1175;DHT22;576;48.418;10.074;2024-03-08T13:35:27;26.30;50.50
1175;DHT22;576;48.418;10.074;2024-03-08T13:37:57;26.30;50.70
1175;DHT22;576;48.418;10.074;2024-03-08T13:40:25;26.20;50.90
1175;DHT22;576;48.418;10.074;2024-03-08T13:42:54;26.10;51.10
1175;DHT22;576;48.418;10.074;2024-03-08T13:45:22;26.00;51.30
1175;DHT22;576;48.418;10.074;2024-03-08T13:47:51;26.00;51.50
1175;DHT22;576;48.418;10.074;2024-03-08T13:50:21;25.90;51.70
1175;DHT22;576;48.418;10.074;2024-03-08T13:52:52;25.80;51.90
1175;DHT22;576;48.418;10.074;2024-03-08T13:55:22;25.70;52.10
1175;DHT22;576;48.418;10.074;2024-03-08T13:57:53;25.70;52.10
1175;DHT22;576;48.418;10.074;2024-03-08T14:00:21;25.60;52.10
1175;DHT22;576;48.418;10.074;2024-03-08T14:02:52;25.50;51.90
1175;DHT22;576;48.418;10.074;2024-03-08T14:05:21;25.40;51.90
1175;DHT22;576;48.418;10.074;2024-03-08T14:07:49;25.40;52.10
1175;DHT22;576;48.418;10.074;2024-03-08T14:10:19;25.40;52.20
1175;DHT22;576;48.418;10.074;2024-03-08T14:12:49;25.30;52.20
1175;DHT22;576;48.418;10.074;2024-03-08T14:15:18;25.30;52.40
1175;DHT22;576;48.418;10.074;2024-03-08T14:17:53;25.30;52.40
1175;DHT22;576;48.418;10.074;2024-03-08T14:20:21;25.30;52.20
1175;DHT22;576;48.418;10.074;2024-03-08T14:22:53;25.20;52.10
1175;DHT22;576;48.418;10.074;2024-03-08T14:25:23;25.20;52.10
1175;DHT22;576;48.418;10.074;2024-03-08T14:27:53;25.20;52.10
1175;DHT22;576;48.418;10.074;2024-03-08T14:30:25;25.20;52.00
1175;DHT22;576;48.418;10.074;2024-03-08T14:33:05;25.20;51.90
1175;DHT22;576;48.418;10.074;2024-03-08T14:35:36;25.20;51.90
1175;DHT22;576;48.418;10.074;2024-03-08T14:38:05;25.20;51.90
1175;DHT22;576;48.418;10.074;2024-03-08T14:40:37;25.30;51.90
1175;DHT22;576;48.418;10.074;2024-03-08T14:43:05;25.30;51.90
1175;DHT22;576;48.418;10.074;2024-03-08T14:45:34;25.30;51.90
1175;DHT22;576;48.418;10.074;2024-03-08T14:48:04;25.30;51.90
1175;DHT22;576;48.418;10.074;2024-03-08T14:50:33;25.30;51.90
1175;DHT22;576;48.418;10.074;2024-03-08T14:53:04;25.30;51.80
1175;DHT22;576;48.418;10.074;2024-03-08T14:55:34;25.30;51.80
1175;DHT22;576;48.418;10.074;2024-03-08T14:58:04;25.30;51.80
1175;DHT22;576;48.418;10.074;2024-03-08T15:00:32;25.40;51.80
1175;DHT22;576;48.418;10.074;2024-03-08T15:03:02;25.40;51.90
1175;DHT22;576;48.418;10.074;2024-03-08T15:05:33;25.40;51.80
1175;DHT22;576;48.418;10.074;2024-03-08T15:08:03;25.30;51.90
1175;DHT22;576;48.418;10.074;2024-03-08T15:10:38;25.40;51.90
1175;DHT22;576;48.418;10.074;2024-03-08T15:13:10;25.40;51.90
1175;DHT22;576;48.418;10.074;2024-03-08T15:15:49;25.40;52.10
1175;DHT22;576;48.418;10.074;2024-03-08T15:18:23;25.40;52.30
1175;DHT22;576;48.418;10.074;2024-03-08T15:21:01;25.40;52.40
1175;DHT22;576;48.418;10.074;2024-03-08T15:23:30;25.40;52.60
1175;DHT22;576;48.418;10.074;2024-03-08T15:25:59;25.40;52.70
1175;DHT22;576;48.418;10.074;2024-03-08T15:28:29;25.40;52.80
1175;DHT22;576;48.418;10.074;2024-03-08T15:31:03;25.50;52.90
1175;DHT22;576;48.418;10.074;2024-03-08T15:33:36;25.50;53.00
1175;DHT22;576;48.418;10.074;2024-03-08T15:36:09;25.50;53.20
1175;DHT22;576;48.418;10.074;2024-03-08T15:38:38;25.50;53.20
1175;DHT22;576;48.418;10.074;2024-03-08T15:41:06;25.50;53.40
1175;DHT22;576;48.418;10.074;2024-03-08T15:43:39;25.50;53.40
1175;DHT22;576;48.418;10.074;2024-03-08T15:46:08;25.50;53.60
1175;DHT22;576;48.418;10.074;2024-03-08T15:48:38;25.50;53.70
1175;DHT22;576;48.418;10.074;2024-03-08T15:51:06;25.40;53.80
1175;DHT22;576;48.418;10.074;2024-03-08T15:53:37;25.40;54.00
1175;DHT22;576;48.418;10.074;2024-03-08T15:56:06;25.30;54.20
1175;DHT22;576;48.418;10.074;2024-03-08T15:58:37;25.30;54.20
1175;DHT22;576;48.418;10.074;2024-03-08T16:01:06;25.30;54.30
1175;DHT22;576;48.418;10.074;2024-03-08T16:03:34;25.20;54.40
1175;DHT22;576;48.418;10.074;2024-03-08T16:06:03;25.10;54.60
1175;DHT22;576;48.418;10.074;2024-03-08T16:08:33;25.10;54.80
1175;DHT22;576;48.418;10.074;2024-03-08T16:11:04;25.10;54.90
1175;DHT22;576;48.418;10.074;2024-03-08T16:13:34;25.00;55.10
1175;DHT22;576;48.418;10.074;2024-03-08T16:16:07;25.00;55.20
1175;DHT22;576;48.418;10.074;2024-03-08T16:18:36;25.00;55.30
1175;DHT22;576;48.418;10.074;2024-03-08T16:21:05;25.00;55.30